createdAt,value
2022-07-25T00:02:04.782Z,23.41
2022-07-25T00:04:37.127Z,23.38
2022-07-25T00:07:07.115Z,23.26
2022-07-25T00:09:36.947Z,23.27
2022-07-25T00:12:11.299Z,23.27
2022-07-25T00:14:41.066Z,23.21
2022-07-25T00:17:10.749Z,23.01
2022-07-25T00:19:40.584Z,23.21
2022-07-25T00:22:10.331Z,23.04
2022-07-25T00:24:40.005Z,22.98
2022-07-25T00:27:13.890Z,23.03
2022-07-25T00:29:43.664Z,22.94
2022-07-25T00:32:13.452Z,22.93
2022-07-25T00:34:43.120Z,22.91
2022-07-25T00:37:13.033Z,22.59
2022-07-25T00:39:42.772Z,22.78
2022-07-25T00:42:15.078Z,22.87
2022-07-25T00:44:44.788Z,22.69
2022-07-25T00:47:14.501Z,22.77
2022-07-25T00:49:44.248Z,22.74
2022-07-25T00:52:13.961Z,22.73
2022-07-25T00:54:43.855Z,22.64
2022-07-25T00:57:17.303Z,22.79
2022-07-25T00:59:47.417Z,22.59
2022-07-25T01:02:17.468Z,22.71
2022-07-25T01:04:47.378Z,22.61
2022-07-25T01:07:17.765Z,22.69
2022-07-25T01:09:47.517Z,22.63
2022-07-25T01:12:20.141Z,22.35
2022-07-25T01:14:49.858Z,22.60
2022-07-25T01:17:19.623Z,22.60
2022-07-25T01:19:51.411Z,22.56
2022-07-25T01:22:23.670Z,22.55
2022-07-25T01:24:53.366Z,22.49
2022-07-25T01:27:23.045Z,22.34
2022-07-25T01:29:52.752Z,22.42
2022-07-25T01:32:22.414Z,22.36
2022-07-25T01:34:52.220Z,22.35
2022-07-25T01:37:24.475Z,22.38
2022-07-25T01:39:54.263Z,22.28
2022-07-25T01:42:23.981Z,22.24
2022-07-25T01:44:53.819Z,22.25
2022-07-25T01:47:23.674Z,22.10
2022-07-25T01:49:53.435Z,22.27
2022-07-25T01:52:25.861Z,22.33
2022-07-25T01:54:55.666Z,22.24
2022-07-25T01:57:31.087Z,22.16
2022-07-25T02:00:01.452Z,22.19
2022-07-25T02:02:42.260Z,22.17
2022-07-25T02:05:13.924Z,22.22
2022-07-25T02:07:46.196Z,22.11
2022-07-25T02:10:15.977Z,22.15
2022-07-25T02:12:45.655Z,22.12
2022-07-25T02:15:15.319Z,22.04
2022-07-25T02:17:45.007Z,21.90
2022-07-25T02:20:15.517Z,21.92
2022-07-25T02:22:47.814Z,21.91
2022-07-25T02:25:17.734Z,21.97
2022-07-25T02:27:47.444Z,21.66
2022-07-25T02:30:17.358Z,21.82
2022-07-25T02:32:47.025Z,21.91
2022-07-25T02:35:16.805Z,21.88
2022-07-25T02:37:49.834Z,21.94
2022-07-25T02:40:19.581Z,21.78
2022-07-25T02:42:49.308Z,21.84
2022-07-25T02:45:19.094Z,21.83
2022-07-25T02:47:48.909Z,21.82
2022-07-25T02:50:19.032Z,21.72
2022-07-25T02:52:51.409Z,21.66
2022-07-25T02:55:21.071Z,21.52
2022-07-25T02:57:50.764Z,21.62
2022-07-25T03:00:21.229Z,21.56
2022-07-25T03:02:51.168Z,21.46
2022-07-25T03:05:21.028Z,21.38
2022-07-25T03:07:53.398Z,21.28
2022-07-25T03:10:23.226Z,21.54
2022-07-25T03:12:53.005Z,21.23
2022-07-25T03:15:22.707Z,21.52
2022-07-25T03:17:52.379Z,21.43
2022-07-25T03:20:22.368Z,21.38
2022-07-25T03:22:54.663Z,21.26
2022-07-25T03:25:24.376Z,21.00
2022-07-25T03:27:54.072Z,21.18
2022-07-25T03:30:23.996Z,21.24
2022-07-25T03:32:55.087Z,21.40
2022-07-25T03:35:26.206Z,21.38
2022-07-25T03:37:58.502Z,21.35
2022-07-25T03:40:28.318Z,21.44
2022-07-25T03:42:58.050Z,21.26
2022-07-25T03:45:28.153Z,21.49
2022-07-25T03:47:58.314Z,21.30
2022-07-25T03:50:28.076Z,21.45
2022-07-25T03:53:00.379Z,21.56
2022-07-25T03:55:30.663Z,21.47
2022-07-25T03:58:00.377Z,21.14
2022-07-25T04:00:30.259Z,21.45
2022-07-25T04:02:59.970Z,21.35
2022-07-25T04:05:30.203Z,21.37
2022-07-25T04:08:02.542Z,21.42
2022-07-25T04:10:33.124Z,21.27
2022-07-25T04:13:02.812Z,21.53
2022-07-25T04:15:32.558Z,21.55
2022-07-25T04:18:03.529Z,21.58
2022-07-25T04:20:37.594Z,21.56
2022-07-25T04:23:10.454Z,21.50
2022-07-25T04:25:40.333Z,21.71
2022-07-25T04:28:10.223Z,21.76
2022-07-25T04:30:40.001Z,21.73
2022-07-25T04:33:10.374Z,21.86
2022-07-25T04:35:40.487Z,21.88
2022-07-25T04:38:12.815Z,22.03
2022-07-25T04:40:42.835Z,22.09
2022-07-25T04:43:12.794Z,22.07
2022-07-25T04:45:42.684Z,22.26
2022-07-25T04:48:12.398Z,22.41
2022-07-25T04:50:42.138Z,22.19
2022-07-25T04:53:14.514Z,22.32
2022-07-25T04:55:44.220Z,22.67
2022-07-25T04:58:13.953Z,22.80
2022-07-25T05:00:43.719Z,22.92
2022-07-25T05:03:13.891Z,23.17
2022-07-25T05:05:45.725Z,23.25
2022-07-25T05:08:17.994Z,23.33
2022-07-25T05:10:48.835Z,23.65
2022-07-25T05:13:19.008Z,23.68
2022-07-25T05:15:48.678Z,23.95
2022-07-25T05:18:18.351Z,24.17
2022-07-25T05:20:48.107Z,24.24
2022-07-25T05:23:20.576Z,24.10
2022-07-25T05:25:50.490Z,24.52
2022-07-25T05:28:20.831Z,24.64
2022-07-25T05:30:50.547Z,24.70
2022-07-25T05:33:20.252Z,24.99
2022-07-25T05:35:50.144Z,25.06
2022-07-25T05:38:22.464Z,24.96
2022-07-25T05:40:52.336Z,25.32
2022-07-25T05:43:22.390Z,25.50
2022-07-25T05:45:52.122Z,25.58
2022-07-25T05:48:21.808Z,25.71
2022-07-25T05:50:51.645Z,25.70
2022-07-25T05:53:23.880Z,25.89
2022-07-25T05:55:53.631Z,25.82
2022-07-25T05:58:29.123Z,26.25
2022-07-25T06:00:59.774Z,26.31
2022-07-25T06:03:29.501Z,26.41
2022-07-25T06:05:59.382Z,26.40
2022-07-25T06:08:31.829Z,26.79
2022-07-25T06:11:04.072Z,26.79
2022-07-25T06:13:35.170Z,27.09
2022-07-25T06:16:05.579Z,27.07
2022-07-25T06:18:35.369Z,27.48
2022-07-25T06:21:06.648Z,27.51
2022-07-25T06:23:38.945Z,27.71
2022-07-25T06:26:11.496Z,27.77
2022-07-25T06:28:41.386Z,27.82
2022-07-25T06:31:11.177Z,28.09
2022-07-25T06:33:42.145Z,28.56
2022-07-25T06:36:12.122Z,28.97
2022-07-25T06:38:44.413Z,28.80
2022-07-25T06:41:17.348Z,28.84
2022-07-25T06:43:47.099Z,29.10
2022-07-25T06:46:16.849Z,29.31
2022-07-25T06:48:46.914Z,29.16
2022-07-25T06:51:16.832Z,28.51
2022-07-25T06:53:50.211Z,28.54
2022-07-25T06:56:19.964Z,28.45
2022-07-25T06:58:49.699Z,28.28
2022-07-25T07:01:19.503Z,28.09
2022-07-25T07:03:49.348Z,28.07
2022-07-25T07:06:19.181Z,27.92
2022-07-25T07:08:51.523Z,28.12
2022-07-25T07:11:21.328Z,28.20
2022-07-25T07:13:53.369Z,28.14
2022-07-25T07:16:23.149Z,28.33
2022-07-25T07:18:52.866Z,28.33
2022-07-25T07:21:22.603Z,28.41
2022-07-25T07:23:55.932Z,28.66
2022-07-25T07:26:26.950Z,28.69
2022-07-25T07:28:57.116Z,28.58
2022-07-25T07:31:28.083Z,28.68
2022-07-25T07:33:59.060Z,28.89
2022-07-25T07:36:28.853Z,29.02
2022-07-25T07:39:02.169Z,29.11
2022-07-25T07:41:31.866Z,29.09
2022-07-25T07:44:01.664Z,29.01
2022-07-25T07:46:31.474Z,28.86
2022-07-25T07:49:01.732Z,29.10
2022-07-25T07:51:31.688Z,29.34
2022-07-25T07:54:16.555Z,29.55
2022-07-25T07:56:46.333Z,29.69
2022-07-25T07:59:16.032Z,29.72
2022-07-25T08:01:45.922Z,29.65
2022-07-25T08:04:15.728Z,29.96
2022-07-25T08:06:46.511Z,29.88
2022-07-25T08:09:19.452Z,29.90
2022-07-25T08:11:49.189Z,30.21
2022-07-25T08:14:18.979Z,30.10
2022-07-25T08:16:48.722Z,30.07
2022-07-25T08:19:18.415Z,30.22
2022-07-25T08:21:48.175Z,30.44
2022-07-25T08:24:20.438Z,30.76
2022-07-25T08:26:50.465Z,30.62
2022-07-25T08:29:23.864Z,30.66
2022-07-25T08:31:57.647Z,30.38
2022-07-25T08:34:27.371Z,30.70
2022-07-25T08:36:57.443Z,30.82
2022-07-25T08:39:29.709Z,30.80
2022-07-25T08:42:00.099Z,30.83
2022-07-25T08:44:34.471Z,31.03
2022-07-25T08:47:04.758Z,30.92
2022-07-25T08:49:39.357Z,31.04
2022-07-25T08:52:11.179Z,30.97
2022-07-25T08:54:43.880Z,31.20
2022-07-25T08:57:13.550Z,31.46
2022-07-25T08:59:43.281Z,31.54
2022-07-25T09:02:16.619Z,31.53
2022-07-25T09:04:46.480Z,31.51
2022-07-25T09:07:16.220Z,31.54
2022-07-25T09:09:48.489Z,31.58
2022-07-25T09:12:24.104Z,31.85
2022-07-25T09:14:55.530Z,31.92
2022-07-25T09:17:25.605Z,31.77
2022-07-25T09:19:57.981Z,31.66
2022-07-25T09:22:27.717Z,31.48
2022-07-25T09:24:59.941Z,31.38
2022-07-25T09:27:35.932Z,31.68
2022-07-25T09:30:15.568Z,31.80
2022-07-25T09:32:45.382Z,31.76
2022-07-25T09:35:15.595Z,31.86
2022-07-25T09:37:45.269Z,32.01
2022-07-25T09:40:19.813Z,32.12
2022-07-25T09:42:53.510Z,32.22
2022-07-25T09:45:24.424Z,32.48
2022-07-25T09:47:58.746Z,32.47
2022-07-25T09:50:30.632Z,32.72
2022-07-25T09:53:02.622Z,32.78
2022-07-25T09:55:35.116Z,32.84
2022-07-25T09:58:04.766Z,32.93
2022-07-25T10:00:35.327Z,32.91
2022-07-25T10:03:19.009Z,32.74
2022-07-25T10:06:04.833Z,33.02
2022-07-25T10:08:39.200Z,33.04
2022-07-25T10:11:21.563Z,33.10
2022-07-25T10:13:52.050Z,33.02
2022-07-25T10:16:24.453Z,33.32
2022-07-25T10:18:55.965Z,33.48
2022-07-25T10:21:28.516Z,33.66
2022-07-25T10:24:08.156Z,33.69
2022-07-25T10:26:42.149Z,33.69
2022-07-25T10:29:14.138Z,33.72
2022-07-25T10:31:50.384Z,33.71
2022-07-25T10:34:31.974Z,33.88
2022-07-25T10:37:12.458Z,33.73
2022-07-25T10:39:44.765Z,33.48
2022-07-25T10:42:20.080Z,33.53
2022-07-25T10:44:52.569Z,33.44
2022-07-25T10:47:26.241Z,33.30
2022-07-25T10:50:16.735Z,33.22
2022-07-25T10:53:00.330Z,33.20
2022-07-25T10:55:31.572Z,33.08
2022-07-25T10:58:17.464Z,33.06
2022-07-25T11:00:47.781Z,33.28
2022-07-25T11:03:18.600Z,33.41
2022-07-25T11:05:49.279Z,33.45
2022-07-25T11:08:22.098Z,33.76
2022-07-25T11:10:54.043Z,33.82
2022-07-25T11:13:26.655Z,33.84
2022-07-25T11:16:00.780Z,33.75
2022-07-25T11:18:39.190Z,33.43
2022-07-25T11:21:11.259Z,33.22
2022-07-25T11:23:43.348Z,33.22
2022-07-25T11:26:14.757Z,33.20
2022-07-25T11:28:49.258Z,33.33
2022-07-25T11:31:21.198Z,33.43
2022-07-25T11:33:52.285Z,33.55
2022-07-25T11:36:22.185Z,33.68
2022-07-25T11:38:52.711Z,33.75
2022-07-25T11:41:32.211Z,33.77
2022-07-25T11:44:04.525Z,33.65
2022-07-25T11:46:44.383Z,33.66
2022-07-25T11:49:15.166Z,33.36
2022-07-25T11:51:46.844Z,33.47
2022-07-25T11:54:16.802Z,33.35
2022-07-25T11:56:47.345Z,33.62
2022-07-25T11:59:19.893Z,33.46
2022-07-25T12:01:51.393Z,33.28
2022-07-25T12:04:22.530Z,33.06
2022-07-25T12:06:52.685Z,33.19
2022-07-25T12:09:24.791Z,33.17
2022-07-25T12:12:05.771Z,33.16
2022-07-25T12:14:47.964Z,33.01
2022-07-25T12:17:18.407Z,33.08
2022-07-25T12:19:49.172Z,33.13
2022-07-25T12:22:19.315Z,33.10
2022-07-25T12:24:49.348Z,33.15
2022-07-25T12:27:19.384Z,33.00
2022-07-25T12:29:52.069Z,33.04
2022-07-25T12:32:22.095Z,32.91
2022-07-25T12:34:52.532Z,32.78
2022-07-25T12:37:22.699Z,32.77
2022-07-25T12:39:52.560Z,32.40
2022-07-25T12:42:22.682Z,32.53
2022-07-25T12:44:55.247Z,32.59
2022-07-25T12:47:25.084Z,32.69
2022-07-25T12:49:54.779Z,32.82
2022-07-25T12:52:24.815Z,32.99
2022-07-25T12:54:54.611Z,33.02
2022-07-25T12:57:24.732Z,32.85
2022-07-25T12:59:57.271Z,32.81
2022-07-25T13:02:27.275Z,32.52
2022-07-25T13:04:56.936Z,32.66
2022-07-25T13:07:26.717Z,32.67
2022-07-25T13:09:56.462Z,32.52
2022-07-25T13:12:26.343Z,32.66
2022-07-25T13:14:58.794Z,32.85
2022-07-25T13:17:28.500Z,33.23
2022-07-25T13:19:59.181Z,33.15
2022-07-25T13:22:29.543Z,33.30
2022-07-25T13:24:59.248Z,33.43
2022-07-25T13:27:29.004Z,33.46
2022-07-25T13:30:01.261Z,33.20
2022-07-25T13:32:31.893Z,33.15
2022-07-25T13:35:01.602Z,33.27
2022-07-25T13:37:31.266Z,33.39
2022-07-25T13:40:00.997Z,33.48
2022-07-25T13:42:30.749Z,33.52
2022-07-25T13:45:03.309Z,33.48
2022-07-25T13:47:35.895Z,33.56
2022-07-25T13:50:06.178Z,33.31
2022-07-25T13:52:35.848Z,32.87
2022-07-25T13:55:05.549Z,32.82
2022-07-25T13:57:35.767Z,32.71
2022-07-25T14:00:09.634Z,32.80
2022-07-25T14:02:39.664Z,32.79
2022-07-25T14:05:10.509Z,32.83
2022-07-25T14:07:40.352Z,33.02
2022-07-25T14:10:11.109Z,33.13
2022-07-25T14:12:41.422Z,32.79
2022-07-25T14:15:14.291Z,32.73
2022-07-25T14:17:45.050Z,32.72
2022-07-25T14:20:15.335Z,32.70
2022-07-25T14:22:45.437Z,32.62
2022-07-25T14:25:15.460Z,32.57
2022-07-25T14:27:45.450Z,32.56
2022-07-25T14:30:18.035Z,32.59
2022-07-25T14:32:47.801Z,32.83
2022-07-25T14:35:17.494Z,33.01
2022-07-25T14:37:47.493Z,33.05
2022-07-25T14:40:17.689Z,33.28
2022-07-25T14:42:47.511Z,33.50
2022-07-25T14:45:22.038Z,33.39
2022-07-25T14:47:52.823Z,33.19
2022-07-25T14:50:23.453Z,33.40
2022-07-25T14:52:53.200Z,33.28
2022-07-25T14:55:23.385Z,33.21
2022-07-25T14:57:53.133Z,33.02
2022-07-25T15:00:29.496Z,32.89
2022-07-25T15:02:59.777Z,32.53
2022-07-25T15:05:29.476Z,32.56
2022-07-25T15:07:59.248Z,32.58
2022-07-25T15:10:29.024Z,32.77
2022-07-25T15:13:28.275Z,32.65
2022-07-25T15:15:51.143Z,32.61
2022-07-25T15:18:20.923Z,32.52
2022-07-25T15:20:52.088Z,32.33
2022-07-25T15:23:24.823Z,32.23
2022-07-25T15:26:01.745Z,32.17
2022-07-25T15:28:33.490Z,31.81
2022-07-25T15:31:06.274Z,31.75
2022-07-25T15:33:36.244Z,31.65
2022-07-25T15:36:06.775Z,31.49
2022-07-25T15:38:36.505Z,31.28
2022-07-25T15:41:06.382Z,31.29
2022-07-25T15:43:36.147Z,31.29
2022-07-25T15:46:08.916Z,31.36
2022-07-25T15:48:39.346Z,31.09
2022-07-25T15:51:09.628Z,31.11
2022-07-25T15:53:40.426Z,30.98
2022-07-25T15:56:10.950Z,30.71
2022-07-25T15:58:41.905Z,30.65
2022-07-25T16:01:14.407Z,30.70
2022-07-25T16:03:44.167Z,30.81
2022-07-25T16:06:18.643Z,30.93
2022-07-25T16:08:49.086Z,30.78
2022-07-25T16:11:26.636Z,30.71
2022-07-25T16:13:57.422Z,31.00
2022-07-25T16:16:29.883Z,30.94
2022-07-25T16:19:00.644Z,30.95
2022-07-25T16:21:30.324Z,30.87
2022-07-25T16:24:00.038Z,30.91
2022-07-25T16:26:29.749Z,30.93
2022-07-25T16:29:02.158Z,31.03
2022-07-25T16:31:34.549Z,30.90
2022-07-25T16:34:04.338Z,30.94
2022-07-25T16:36:33.999Z,30.72
2022-07-25T16:39:03.807Z,30.58
2022-07-25T16:41:34.093Z,30.45
2022-07-25T16:44:03.866Z,30.45
2022-07-25T16:46:36.332Z,30.32
2022-07-25T16:49:06.836Z,30.16
2022-07-25T16:51:37.440Z,29.89
2022-07-25T16:54:08.360Z,29.78
2022-07-25T16:56:39.170Z,29.98
2022-07-25T16:59:11.283Z,29.89
2022-07-25T17:01:46.596Z,29.72
2022-07-25T17:04:16.453Z,29.47
2022-07-25T17:06:46.361Z,29.34
2022-07-25T17:09:16.048Z,29.18
2022-07-25T17:11:46.876Z,29.30
2022-07-25T17:14:16.569Z,29.28
2022-07-25T17:16:49.849Z,29.10
2022-07-25T17:19:19.640Z,28.81
2022-07-25T17:21:49.291Z,28.86
2022-07-25T17:24:20.037Z,28.64
2022-07-25T17:26:50.758Z,28.45
2022-07-25T17:29:21.799Z,28.05
2022-07-25T17:31:54.177Z,28.42
2022-07-25T17:34:26.718Z,28.24
2022-07-25T17:36:57.322Z,28.34
2022-07-25T17:39:28.117Z,28.29
2022-07-25T17:41:58.969Z,28.37
2022-07-25T17:44:29.145Z,28.31
2022-07-25T17:47:01.594Z,28.33
2022-07-25T17:49:31.430Z,28.13
2022-07-25T17:52:02.098Z,28.20
2022-07-25T17:54:31.827Z,28.26
2022-07-25T17:57:01.705Z,28.32
2022-07-25T17:59:31.460Z,28.30
2022-07-25T18:02:05.718Z,28.21
2022-07-25T18:04:35.466Z,28.10
2022-07-25T18:07:06.500Z,28.01
2022-07-25T18:09:36.241Z,27.85
2022-07-25T18:12:07.749Z,27.70
2022-07-25T18:14:39.560Z,27.77
2022-07-25T18:17:12.120Z,27.89
2022-07-25T18:19:42.866Z,27.79
2022-07-25T18:22:12.579Z,27.86
2022-07-25T18:24:42.292Z,27.89
2022-07-25T18:27:11.967Z,27.70
2022-07-25T18:29:42.752Z,27.62
2022-07-25T18:32:17.057Z,27.56
2022-07-25T18:34:46.870Z,27.59
2022-07-25T18:37:16.576Z,27.65
2022-07-25T18:39:46.455Z,27.39
2022-07-25T18:42:16.294Z,27.39
2022-07-25T18:44:46.029Z,27.19
2022-07-25T18:47:23.208Z,27.17
2022-07-25T18:49:56.049Z,27.03
2022-07-25T18:52:26.971Z,26.86
2022-07-25T18:54:58.901Z,26.86
2022-07-25T18:57:28.603Z,26.79
2022-07-25T19:00:02.747Z,26.71
2022-07-25T19:02:35.564Z,26.83
2022-07-25T19:05:05.354Z,26.70
2022-07-25T19:07:36.160Z,26.65
2022-07-25T19:10:07.898Z,26.50
2022-07-25T19:12:37.817Z,26.54
2022-07-25T19:15:08.983Z,26.55
2022-07-25T19:17:48.157Z,26.53
2022-07-25T19:20:17.990Z,26.40
2022-07-25T19:22:49.836Z,26.47
2022-07-25T19:25:19.597Z,26.41
2022-07-25T19:27:49.390Z,26.33
2022-07-25T19:30:21.460Z,26.33
2022-07-25T19:32:54.773Z,26.37
2022-07-25T19:35:27.838Z,26.30
2022-07-25T19:37:57.526Z,26.17
2022-07-25T19:40:27.232Z,26.22
2022-07-25T19:42:57.156Z,26.19
2022-07-25T19:45:27.069Z,26.25
2022-07-25T19:47:59.371Z,26.28
2022-07-25T19:50:29.379Z,26.28
2022-07-25T19:53:01.415Z,26.37
2022-07-25T19:55:31.282Z,26.23
2022-07-25T19:58:01.944Z,26.16
2022-07-25T20:00:31.733Z,26.24
2022-07-25T20:03:04.230Z,25.84
2022-07-25T20:05:34.218Z,26.07
2022-07-25T20:08:05.066Z,25.79
2022-07-25T20:10:34.834Z,26.01
2022-07-25T20:13:04.860Z,25.96
2022-07-25T20:15:36.647Z,25.96
2022-07-25T20:18:09.082Z,26.00
2022-07-25T20:20:38.910Z,25.96
2022-07-25T20:23:08.647Z,25.90
2022-07-25T20:25:39.621Z,25.98
2022-07-25T20:28:09.805Z,25.97
2022-07-25T20:30:39.824Z,26.04
2022-07-25T20:33:12.906Z,26.01
2022-07-25T20:35:42.718Z,26.03
2022-07-25T20:38:12.417Z,25.94
2022-07-25T20:40:49.323Z,25.86
2022-07-25T20:43:21.294Z,25.91
2022-07-25T20:45:51.157Z,25.92
2022-07-25T20:48:23.516Z,25.88
2022-07-25T20:50:53.284Z,25.84
2022-07-25T20:53:23.381Z,25.85
2022-07-25T20:55:53.806Z,25.59
2022-07-25T20:58:23.541Z,25.59
2022-07-25T21:00:53.363Z,25.56
2022-07-25T21:03:26.826Z,25.44
2022-07-25T21:05:56.590Z,25.31
2022-07-25T21:08:26.338Z,25.32
2022-07-25T21:10:58.839Z,25.27
2022-07-25T21:13:30.851Z,25.19
2022-07-25T21:16:03.136Z,24.94
2022-07-25T21:18:38.150Z,24.90
2022-07-25T21:21:12.104Z,24.87
2022-07-25T21:23:42.243Z,24.62
2022-07-25T21:26:11.897Z,24.92
2022-07-25T21:28:41.593Z,24.83
2022-07-25T21:31:11.300Z,24.82
2022-07-25T21:33:43.941Z,24.87
2022-07-25T21:36:13.643Z,24.78
2022-07-25T21:38:43.354Z,24.89
2022-07-25T21:41:13.071Z,24.70
2022-07-25T21:43:44.267Z,24.71
2022-07-25T21:46:14.168Z,24.75
2022-07-25T21:48:59.042Z,24.65
2022-07-25T21:51:33.301Z,24.58
2022-07-25T21:54:10.385Z,24.49
2022-07-25T21:56:41.331Z,24.40
2022-07-25T21:59:11.291Z,24.49
2022-07-25T22:01:41.613Z,24.14
2022-07-25T22:04:13.989Z,24.44
2022-07-25T22:06:43.749Z,24.31
2022-07-25T22:09:13.533Z,24.26
2022-07-25T22:11:46.212Z,24.17
2022-07-25T22:14:16.899Z,24.13
2022-07-25T22:16:46.756Z,23.96
2022-07-25T22:19:22.332Z,24.11
2022-07-25T22:21:52.794Z,23.97
2022-07-25T22:24:22.545Z,24.05
2022-07-25T22:26:52.226Z,24.04
2022-07-25T22:29:21.902Z,23.97
2022-07-25T22:31:51.704Z,23.92
2022-07-25T22:34:24.191Z,23.89
2022-07-25T22:36:53.928Z,23.75
2022-07-25T22:39:23.618Z,23.71
2022-07-25T22:41:53.871Z,23.62
2022-07-25T22:44:23.644Z,23.51
2022-07-25T22:46:53.286Z,23.49
2022-07-25T22:49:26.301Z,23.51
2022-07-25T22:51:56.056Z,23.53
2022-07-25T22:54:25.814Z,23.48
2022-07-25T22:56:55.491Z,23.38
2022-07-25T22:59:25.127Z,23.25
2022-07-25T23:01:54.886Z,23.22
2022-07-25T23:04:27.241Z,23.42
2022-07-25T23:06:56.972Z,23.39
2022-07-25T23:09:33.774Z,23.27
2022-07-25T23:12:07.203Z,23.27
2022-07-25T23:14:36.921Z,23.34
2022-07-25T23:17:21.599Z,23.22
2022-07-25T23:19:55.788Z,23.23
2022-07-25T23:22:28.295Z,23.12
2022-07-25T23:24:58.573Z,23.20
2022-07-25T23:27:29.757Z,23.34
2022-07-25T23:30:05.455Z,23.46
2022-07-25T23:32:35.419Z,23.47
2022-07-25T23:35:08.605Z,23.46
2022-07-25T23:37:38.460Z,23.29
2022-07-25T23:40:09.512Z,23.24
2022-07-25T23:42:39.195Z,23.18
2022-07-25T23:45:10.706Z,22.91
2022-07-25T23:47:41.397Z,22.99
2022-07-25T23:50:15.778Z,22.98
2022-07-25T23:52:45.479Z,22.97
2022-07-25T23:55:15.217Z,22.84
2022-07-25T23:57:44.883Z,22.92
